Bradley, WV

12:38 PM EDT on October 01, 2016 (GMT -0400)
Bluestone Dam - Meador Station | | Change Station

Elev 1394 ft 37.65 °N, 80.88 °W | Updated 21 seconds ago

Partly Cloudy
Partly Cloudy
71.2 °F
Feels Like 76 °F
N
0.0
Wind Variable Wind from South
Gusts 0.0 mph

Today
High -- | Low -- °F
--% Chance of Precip.
Yesterday
High -- | Low -- °F
Precip. -- in
Pressure 30.07 in
Visibility 10.0 miles
Clouds Few 2900 ft
Heat Index 76 °F
Dew Point 55 °F
Humidity 56%
Rainfall 0.00 in
Snow Depth Not available.
7:20 AM 7:07 PM
New Moon, 0% visible
METAR KBKW 011551Z AUTO 21006KT 10SM FEW029 18/11 A3012 RMK AO2 SLP183 T01830111
Pressure 30.07 in
Visibility 10.0 miles
Clouds Few 2900 ft
Heat Index 76 °F
Dew Point 55 °F
Humidity 56%
Rainfall 0.00 in
Snow Depth Not available.
7:20 AM 7:07 PM
New Moon, 0% visible
METAR KBKW 011551Z AUTO 21006KT 10SM FEW029 18/11 A3012 RMK AO2 SLP183 T01830111

10-Day Weather Forecast

Almanac

Astronomy

Oct. 01, 2016 Rise Set
Actual Time
Civil Twilight
Nautical Twilight
Astronomical Twilight
Moon
Length of Visible Light
Length of Day
Tomorrow will be .
, % of the Moon is Illuminated

Today's Extremes

State Highs State Lows

Community

WunderPhotos

Upload Photos

1,942,962 photos uploaded!

WunderBlog® & News

Nearby

Air Quality

  Air Quality AQ Index Pollutant
Not available.

Snow Depth

Station Depth Elevation

Earthquake Activity

City Distance Mag. Time & Date
Minimum magnitude displayed is 2.5.

Coastal Water Temperatures

Place Temperature

Stations

Nearby Weather Stations

Station Location Temp. Windchill Dew Point Humidity Wind Precip. Elev Updated Type
                   

Watches & Warnings

There are currently no watches in effect.